Time;durP1;ratioP1;P1;durP2;ratioP2;P2;SDS_P1;SDS_P2;PMS_P1;PMS_P2;Temp;Humidity;BMP_temperature;BMP_pressure;BME280_temperature;BME280_humidity;BME280_pressure;Samples;Min_cycle;Max_cycle;Signal;HPM_P1;HPM_P2
2023/10/25 00:00:29;;;;;;;1.98;1.10;;;11.60;99.90;;;;;;5071031;28;20183;-75
2023/10/25 00:02:55;;;;;;;4.00;1.70;;;11.70;99.90;;;;;;5063260;28;20234;-75
2023/10/25 00:05:21;;;;;;;3.33;1.50;;;11.70;99.90;;;;;;5068316;28;20283;-75
2023/10/25 00:07:47;;;;;;;2.30;1.40;;;11.70;99.90;;;;;;5070881;28;20169;-75
2023/10/25 00:10:13;;;;;;;3.30;1.90;;;11.70;99.90;;;;;;5026612;28;20214;-75
2023/10/25 00:12:39;;;;;;;14.03;2.47;;;11.70;99.90;;;;;;5061469;28;20272;-76
2023/10/25 00:15:05;;;;;;;6.10;1.30;;;11.70;99.90;;;;;;5061945;28;20590;-75
2023/10/25 00:17:31;;;;;;;3.38;1.50;;;11.70;99.90;;;;;;5023710;28;20205;-75
2023/10/25 00:19:57;;;;;;;2.30;1.10;;;11.70;99.90;;;;;;5057731;28;20200;-75
2023/10/25 00:22:23;;;;;;;3.90;1.30;;;11.70;99.90;;;;;;5051613;28;20650;-75
2023/10/25 00:24:48;;;;;;;2.43;1.10;;;11.80;99.90;;;;;;5070316;28;20180;-75
2023/10/25 00:27:14;;;;;;;3.20;1.10;;;11.70;99.90;;;;;;5068690;28;20210;-75
2023/10/25 00:29:40;;;;;;;1.53;1.00;;;11.80;99.90;;;;;;5035399;28;20199;-75
2023/10/25 00:32:06;;;;;;;2.80;1.03;;;11.80;99.90;;;;;;5060016;28;20207;-75
2023/10/25 00:34:32;;;;;;;3.65;1.20;;;11.80;99.90;;;;;;5070381;28;20161;-75
2023/10/25 00:36:57;;;;;;;3.57;1.23;;;11.80;99.90;;;;;;5070422;28;20525;-75
2023/10/25 00:39:23;;;;;;;2.83;1.10;;;11.80;99.90;;;;;;5035771;28;20176;-75
2023/10/25 00:41:49;;;;;;;1.97;1.03;;;11.80;99.90;;;;;;5052351;28;20857;-75
2023/10/25 00:44:14;;;;;;;3.37;1.20;;;11.80;99.90;;;;;;5035746;28;20212;-75
2023/10/25 00:46:40;;;;;;;2.20;0.90;;;11.80;99.90;;;;;;5068905;28;20184;-75
2023/10/25 00:49:07;;;;;;;2.10;1.10;;;11.80;99.90;;;;;;5068986;28;20235;-75
2023/10/25 00:51:34;;;;;;;2.55;1.00;;;11.80;99.90;;;;;;5069131;28;20963;-75
2023/10/25 00:54:02;;;;;;;1.50;0.95;;;11.80;99.90;;;;;;5032546;28;20269;-75
2023/10/25 00:56:32;;;;;;;2.97;1.10;;;11.80;99.90;;;;;;5068352;28;20160;-75
2023/10/25 00:58:58;;;;;;;6.65;0.98;;;11.80;99.90;;;;;;5052386;28;20267;-75
2023/10/25 01:01:27;;;;;;;2.08;1.30;;;11.80;99.90;;;;;;5050880;28;20204;-75
2023/10/25 01:03:54;;;;;;;2.67;0.90;;;11.80;99.90;;;;;;5035220;28;20274;-75
2023/10/25 01:06:19;;;;;;;3.13;1.50;;;11.80;99.90;;;;;;5033734;28;20263;-75
2023/10/25 01:08:46;;;;;;;2.47;1.30;;;11.70;99.90;;;;;;5061462;28;20295;-75
2023/10/25 01:11:13;;;;;;;2.40;1.60;;;11.70;99.90;;;;;;5052640;28;20207;-75
2023/10/25 01:13:39;;;;;;;3.23;1.00;;;11.70;99.90;;;;;;5070017;28;20180;-75
2023/10/25 01:16:05;;;;;;;3.08;1.05;;;11.70;99.90;;;;;;5068161;28;20674;-75
2023/10/25 01:18:31;;;;;;;3.30;2.00;;;11.70;99.90;;;;;;5035115;28;20330;-75
2023/10/25 01:20:57;;;;;;;6.20;1.90;;;11.70;99.90;;;;;;5035475;28;20534;-75
2023/10/25 01:23:22;;;;;;;4.47;1.80;;;11.70;99.90;;;;;;5068739;28;20641;-76
2023/10/25 01:25:48;;;;;;;2.67;1.60;;;11.70;99.90;;;;;;5070023;28;20278;-75
2023/10/25 01:28:14;;;;;;;3.10;1.40;;;11.60;99.90;;;;;;5071657;28;20196;-75
2023/10/25 01:30:40;;;;;;;3.70;1.67;;;11.60;99.90;;;;;;5056804;28;20527;-75
2023/10/25 01:33:06;;;;;;;1.95;1.48;;;11.60;99.90;;;;;;5055948;28;20207;-75
2023/10/25 01:35:34;;;;;;;4.80;1.75;;;11.70;99.90;;;;;;5072097;28;20172;-76
2023/10/25 01:38:01;;;;;;;3.88;1.80;;;11.60;99.90;;;;;;5055764;28;20172;-76
2023/10/25 01:40:26;;;;;;;5.88;2.00;;;11.60;99.90;;;;;;5055518;28;20306;-76
2023/10/25 01:42:54;;;;;;;3.70;1.63;;;11.60;99.90;;;;;;5073564;28;20850;-76
2023/10/25 01:45:27;;;;;;;3.08;1.95;;;11.60;99.90;;;;;;5073007;28;20176;-76
2023/10/25 01:47:53;;;;;;;3.25;1.60;;;11.60;99.90;;;;;;5055683;28;20183;-74
2023/10/25 01:50:19;;;;;;;3.88;1.90;;;11.60;99.90;;;;;;5073327;28;20203;-75
2023/10/25 01:52:46;;;;;;;3.42;2.25;;;11.60;99.90;;;;;;5073296;28;20211;-75
2023/10/25 01:55:12;;;;;;;4.70;3.13;;;11.60;99.90;;;;;;5072847;28;20173;-75
2023/10/25 01:57:38;;;;;;;2.72;2.20;;;11.60;99.90;;;;;;5038773;28;20571;-75
2023/10/25 02:00:06;;;;;;;3.60;1.70;;;11.60;99.90;;;;;;5073369;28;20175;-75
2023/10/25 02:02:38;;;;;;;3.95;2.38;;;11.60;99.90;;;;;;5073046;28;20632;-75
2023/10/25 02:05:04;;;;;;;4.57;2.23;;;11.60;99.90;;;;;;5055277;28;20172;-75
2023/10/25 02:07:30;;;;;;;3.08;1.70;;;11.50;99.90;;;;;;5038264;28;20176;-75
2023/10/25 02:09:56;;;;;;;2.67;1.63;;;11.50;99.90;;;;;;5071880;28;20685;-75
2023/10/25 02:12:21;;;;;;;4.30;2.63;;;11.50;99.90;;;;;;5071642;28;20196;-75
2023/10/25 02:14:47;;;;;;;5.30;2.80;;;11.40;99.90;;;;;;5038254;28;20175;-75
2023/10/25 02:17:13;;;;;;;3.83;1.80;;;11.40;99.90;;;;;;5046588;28;20164;-75
2023/10/25 02:19:39;;;;;;;3.53;1.80;;;11.40;99.90;;;;;;5038417;28;20172;-75
2023/10/25 02:22:05;;;;;;;4.10;2.20;;;11.40;99.90;;;;;;5054882;28;20257;-76
2023/10/25 02:24:31;;;;;;;5.23;2.10;;;11.40;99.90;;;;;;5071328;28;20587;-74
2023/10/25 02:26:57;;;;;;;3.30;2.00;;;11.30;99.90;;;;;;5021521;28;20176;-75
2023/10/25 02:29:23;;;;;;;4.40;2.92;;;11.30;99.90;;;;;;5071266;28;20255;-75
2023/10/25 02:31:48;;;;;;;3.83;2.23;;;11.20;99.90;;;;;;5071389;28;20220;-74
2023/10/25 02:34:14;;;;;;;2.23;2.03;;;11.20;99.90;;;;;;5037859;28;20210;-75
2023/10/25 02:36:40;;;;;;;4.07;1.93;;;11.20;99.90;;;;;;5054197;28;20699;-75
2023/10/25 02:39:06;;;;;;;2.37;2.17;;;11.20;99.90;;;;;;5037776;28;20188;-75
2023/10/25 02:41:31;;;;;;;6.10;2.43;;;11.10;99.90;;;;;;5054280;28;20204;-74
2023/10/25 02:43:58;;;;;;;5.17;2.30;;;11.10;99.90;;;;;;5037967;28;20546;-74
2023/10/25 02:46:24;;;;;;;5.05;2.85;;;11.10;99.90;;;;;;5054101;28;20214;-75
2023/10/25 02:48:51;;;;;;;5.37;2.60;;;11.10;99.90;;;;;;5037688;28;20199;-75
2023/10/25 02:51:17;;;;;;;3.45;2.10;;;11.00;99.90;;;;;;5054242;28;20904;-75
2023/10/25 02:53:42;;;;;;;2.75;1.90;;;11.00;99.90;;;;;;5074378;28;20175;-75
2023/10/25 02:56:09;;;;;;;2.70;2.10;;;11.00;99.90;;;;;;5070702;28;20176;-75
2023/10/25 02:58:35;;;;;;;3.83;2.25;;;11.00;99.90;;;;;;5072110;28;20237;-75
2023/10/25 03:01:01;;;;;;;7.53;2.05;;;11.00;99.90;;;;;;5045886;28;20654;-75
2023/10/25 03:03:30;;;;;;;5.07;1.90;;;11.00;99.90;;;;;;5062112;28;20223;-75
2023/10/25 03:05:55;;;;;;;4.85;1.80;;;11.00;99.90;;;;;;5070429;28;20614;-75
2023/10/25 03:08:22;;;;;;;4.00;2.20;;;11.00;99.90;;;;;;5070349;28;20212;-75
2023/10/25 03:10:47;;;;;;;5.15;2.33;;;10.90;99.90;;;;;;5054017;28;20587;-75
2023/10/25 03:13:13;;;;;;;3.60;1.83;;;10.90;99.90;;;;;;5053972;28;20292;-75
2023/10/25 03:15:39;;;;;;;3.43;2.20;;;10.90;99.90;;;;;;5012236;28;20172;-75
2023/10/25 03:18:05;;;;;;;4.83;2.87;;;10.90;99.90;;;;;;5071671;28;20176;-75
2023/10/25 03:20:32;;;;;;;2.60;2.23;;;10.90;99.90;;;;;;5037405;28;20274;-75
2023/10/25 03:22:58;;;;;;;3.25;1.90;;;10.80;99.90;;;;;;5070462;28;20618;-76
2023/10/25 03:25:24;;;;;;;2.83;2.23;;;10.80;99.90;;;;;;5045023;28;20184;-75
2023/10/25 03:27:50;;;;;;;7.10;2.60;;;10.80;99.90;;;;;;5071745;28;20183;-76
2023/10/25 03:30:16;;;;;;;2.63;2.37;;;10.80;99.90;;;;;;5053923;28;21290;-76
2023/10/25 03:32:43;;;;;;;2.80;2.45;;;10.80;99.90;;;;;;5071774;28;20195;-76
2023/10/25 03:35:09;;;;;;;5.63;2.67;;;10.70;99.90;;;;;;5070574;28;20202;-76
2023/10/25 03:37:39;;;;;;;3.33;2.30;;;10.70;99.90;;;;;;5053454;28;20602;-76
2023/10/25 03:40:14;;;;;;;3.38;2.70;;;10.70;99.90;;;;;;5054057;28;20192;-76
2023/10/25 03:42:40;;;;;;;6.38;2.95;;;10.70;99.90;;;;;;5053466;28;20244;-75
2023/10/25 03:45:06;;;;;;;4.30;2.73;;;10.70;99.90;;;;;;5038380;28;20184;-75
2023/10/25 03:47:37;;;;;;;3.63;3.33;;;10.70;99.90;;;;;;5059317;28;20577;-75
2023/10/25 03:50:07;;;;;;;7.25;3.30;;;10.70;99.90;;;;;;5047380;28;20779;-75
2023/10/25 03:52:35;;;;;;;3.35;2.75;;;10.60;99.90;;;;;;5075532;22;20583;-74
2023/10/25 03:55:00;;;;;;;5.00;3.27;;;10.70;99.90;;;;;;5036591;28;20168;-74
2023/10/25 03:57:27;;;;;;;4.47;3.67;;;10.60;99.90;;;;;;5052402;28;20674;-74
2023/10/25 03:59:53;;;;;;;3.60;3.20;;;10.60;99.90;;;;;;5069777;28;20259;-74
2023/10/25 04:02:19;;;;;;;3.03;2.70;;;10.70;99.90;;;;;;5044782;28;20283;-74
2023/10/25 04:04:45;;;;;;;3.10;2.70;;;10.70;99.90;;;;;;5052945;28;20274;-74
2023/10/25 04:07:12;;;;;;;3.43;2.97;;;10.60;99.90;;;;;;5052704;28;20587;-74
2023/10/25 04:09:38;;;;;;;3.88;2.72;;;10.60;99.90;;;;;;5052867;28;20215;-74
2023/10/25 04:12:04;;;;;;;4.30;3.22;;;10.70;99.90;;;;;;5036315;28;20192;-74
2023/10/25 04:14:29;;;;;;;3.70;2.72;;;10.70;99.90;;;;;;5051084;28;20268;-74
2023/10/25 04:16:55;;;;;;;6.93;3.30;;;10.70;99.90;;;;;;5037873;28;20263;-74
2023/10/25 04:19:21;;;;;;;4.13;3.47;;;10.60;99.90;;;;;;5052716;28;20641;-73
2023/10/25 04:21:46;;;;;;;3.40;3.10;;;10.70;99.90;;;;;;5052879;28;20632;-73
2023/10/25 04:24:12;;;;;;;5.40;3.20;;;10.70;99.90;;;;;;5070799;28;20184;-74
2023/10/25 04:26:38;;;;;;;5.00;2.30;;;10.70;99.90;;;;;;5052265;28;20230;-74
2023/10/25 04:29:03;;;;;;;3.03;2.43;;;10.70;99.90;;;;;;5045383;28;20207;-74
2023/10/25 04:31:29;;;;;;;3.30;3.00;;;10.70;99.90;;;;;;5017744;28;20196;-74
2023/10/25 04:33:55;;;;;;;5.87;3.80;;;10.70;99.90;;;;;;5029311;28;20563;-74
2023/10/25 04:36:20;;;;;;;3.63;3.27;;;10.70;99.90;;;;;;5052378;28;20333;-74
2023/10/25 04:38:46;;;;;;;5.53;3.30;;;10.70;99.90;;;;;;5052538;28;20609;-74
2023/10/25 04:41:12;;;;;;;5.93;4.07;;;10.70;99.90;;;;;;5052351;28;20581;-74
2023/10/25 04:43:38;;;;;;;4.50;3.10;;;10.70;99.90;;;;;;5067615;28;20184;-73
2023/10/25 04:46:04;;;;;;;4.83;3.17;;;10.80;99.90;;;;;;5070282;28;20609;-74
2023/10/25 04:48:29;;;;;;;4.43;3.43;;;10.80;99.90;;;;;;5052319;28;20196;-74
2023/10/25 04:50:55;;;;;;;4.00;2.90;;;10.70;99.90;;;;;;5035781;28;20195;-74
2023/10/25 04:53:21;;;;;;;5.07;3.40;;;10.70;99.90;;;;;;5052146;28;20634;-74
2023/10/25 04:55:47;;;;;;;3.90;3.50;;;10.70;99.90;;;;;;5035565;28;20177;-74
2023/10/25 04:58:13;;;;;;;5.00;3.93;;;10.70;99.90;;;;;;5070289;28;20203;-74
2023/10/25 05:00:39;;;;;;;5.03;3.80;;;10.70;99.90;;;;;;5043496;28;20587;-74
2023/10/25 05:03:09;;;;;;;5.43;4.27;;;10.70;99.90;;;;;;5035126;28;20211;-73
2023/10/25 05:05:39;;;;;;;4.30;3.25;;;10.70;99.90;;;;;;5056053;28;20546;-74
2023/10/25 05:08:06;;;;;;;4.88;3.60;;;10.70;99.90;;;;;;5074365;28;20570;-74
2023/10/25 05:10:33;;;;;;;5.22;3.95;;;10.70;99.90;;;;;;5056241;28;20223;-73
2023/10/25 05:12:59;;;;;;;6.43;4.13;;;10.70;99.90;;;;;;5073010;28;20188;-73
2023/10/25 05:15:27;;;;;;;4.75;3.25;;;10.70;99.90;;;;;;5055810;28;20712;-73
2023/10/25 05:17:53;;;;;;;4.82;3.28;;;10.70;99.90;;;;;;5056207;28;20222;-73
2023/10/25 05:20:19;;;;;;;4.10;3.35;;;10.70;99.90;;;;;;5051878;28;20176;-73
2023/10/25 05:22:50;;;;;;;5.20;4.70;;;10.70;99.90;;;;;;5056051;28;20558;-73
2023/10/25 05:25:16;;;;;;;5.20;4.43;;;10.70;99.90;;;;;;5073946;28;20598;-73
2023/10/25 05:27:43;;;;;;;5.50;4.18;;;10.70;99.90;;;;;;5073282;28;20271;-74
2023/10/25 05:30:09;;;;;;;5.57;3.97;;;10.70;99.90;;;;;;5073941;28;20693;-73
2023/10/25 05:32:37;;;;;;;8.93;4.28;;;10.70;99.90;;;;;;5066011;28;20249;-73
2023/10/25 05:35:05;;;;;;;5.35;3.72;;;10.70;99.90;;;;;;5073833;28;20168;-73
2023/10/25 05:37:31;;;;;;;5.70;3.80;;;10.70;99.90;;;;;;5055581;28;20168;-73
2023/10/25 05:39:57;;;;;;;7.15;3.33;;;10.70;99.90;;;;;;5039174;28;20183;-74
2023/10/25 05:42:24;;;;;;;6.13;4.30;;;10.70;99.90;;;;;;5073550;28;20220;-74
2023/10/25 05:44:51;;;;;;;7.93;4.55;;;10.70;99.90;;;;;;5073715;28;20185;-74
2023/10/25 05:47:23;;;;;;;5.43;3.92;;;10.70;99.90;;;;;;5055462;28;20176;-73
2023/10/25 05:49:49;;;;;;;3.53;3.00;;;10.70;99.90;;;;;;5055454;28;20277;-73
2023/10/25 05:52:16;;;;;;;5.18;3.55;;;10.70;99.90;;;;;;5055352;28;20203;-73
2023/10/25 05:54:41;;;;;;;6.50;3.80;;;10.80;99.90;;;;;;5056424;28;20246;-74
2023/10/25 05:57:08;;;;;;;5.10;3.60;;;10.80;99.90;;;;;;5055086;28;20633;-73
2023/10/25 05:59:34;;;;;;;4.95;4.15;;;10.80;99.90;;;;;;5073236;28;20654;-73
2023/10/25 06:02:14;;;;;;;5.25;3.10;;;10.80;99.90;;;;;;5054928;28;20192;-74
2023/10/25 06:04:41;;;;;;;6.15;2.50;;;10.90;99.90;;;;;;5073048;28;20208;-74
2023/10/25 06:07:09;;;;;;;6.10;3.53;;;10.90;99.90;;;;;;5072921;28;20203;-73
2023/10/25 06:09:36;;;;;;;5.18;3.65;;;10.90;99.90;;;;;;5055113;28;20553;-73
2023/10/25 06:12:03;;;;;;;10.05;2.53;;;10.90;99.90;;;;;;5054488;28;20238;-73
2023/10/25 06:14:29;;;;;;;4.25;3.17;;;11.00;99.90;;;;;;5055051;28;20526;-73
2023/10/25 06:16:56;;;;;;;6.40;2.70;;;11.00;99.90;;;;;;5072794;28;20275;-73
2023/10/25 06:19:22;;;;;;;4.20;3.08;;;11.10;99.90;;;;;;5072834;28;20187;-74
2023/10/25 06:21:48;;;;;;;4.70;3.13;;;11.10;99.90;;;;;;5071412;28;20192;-74
2023/10/25 06:24:16;;;;;;;6.55;3.45;;;11.10;99.90;;;;;;5072821;28;20606;-74
2023/10/25 06:26:42;;;;;;;4.10;2.60;;;11.10;99.90;;;;;;5053411;28;20196;-74
2023/10/25 06:29:08;;;;;;;4.10;2.87;;;11.20;99.90;;;;;;5038324;28;20203;-74
2023/10/25 06:31:34;;;;;;;4.78;3.20;;;11.20;99.90;;;;;;5054413;28;20192;-74
2023/10/25 06:34:00;;;;;;;8.70;3.13;;;11.20;99.90;;;;;;5072331;28;20187;-74
2023/10/25 06:36:26;;;;;;;3.22;2.72;;;11.20;99.90;;;;;;5057941;28;20589;-73
2023/10/25 06:38:53;;;;;;;4.63;2.70;;;11.20;99.90;;;;;;5054638;28;20546;-74
2023/10/25 06:41:22;;;;;;;4.78;3.00;;;11.20;99.90;;;;;;5072551;28;20665;-74
2023/10/25 06:43:48;;;;;;;4.28;2.42;;;11.20;99.90;;;;;;5072441;28;20188;-74
2023/10/25 06:46:14;;;;;;;5.53;2.85;;;11.20;99.90;;;;;;5054274;28;20176;-74
2023/10/25 06:48:41;;;;;;;4.65;3.10;;;11.30;99.90;;;;;;5054291;28;20200;-74
2023/10/25 06:51:08;;;;;;;4.45;2.83;;;11.30;99.90;;;;;;5054185;28;20180;-74
2023/10/25 06:53:36;;;;;;;3.80;2.55;;;11.30;99.90;;;;;;5054232;28;20206;-74
2023/10/25 06:56:02;;;;;;;3.63;3.15;;;11.40;99.90;;;;;;5058266;28;20173;-74
2023/10/25 06:58:29;;;;;;;5.05;2.83;;;11.40;99.90;;;;;;5054372;28;20180;-74
2023/10/25 07:00:57;;;;;;;4.43;2.72;;;11.40;99.90;;;;;;5072227;28;20267;-74
2023/10/25 07:03:31;;;;;;;5.28;2.47;;;11.40;99.90;;;;;;5071544;28;20188;-74
2023/10/25 07:05:59;;;;;;;3.30;2.25;;;11.40;99.90;;;;;;5052661;28;20576;-74
2023/10/25 07:08:26;;;;;;;5.18;2.60;;;11.40;99.90;;;;;;5053942;28;20183;-74
2023/10/25 07:10:51;;;;;;;5.20;2.28;;;11.50;99.90;;;;;;5065817;28;20172;-75
2023/10/25 07:13:17;;;;;;;3.25;1.95;;;11.60;99.90;;;;;;5071896;28;20208;-75
2023/10/25 07:15:43;;;;;;;3.90;2.00;;;11.60;99.90;;;;;;5053874;28;20183;-75
2023/10/25 07:18:09;;;;;;;8.13;2.30;;;11.70;99.90;;;;;;5053658;28;20244;-74
2023/10/25 07:20:34;;;;;;;5.70;2.93;;;11.70;99.90;;;;;;5054015;28;20653;-74
2023/10/25 07:23:00;;;;;;;2.87;1.83;;;11.80;99.90;;;;;;5072732;28;20218;-74
2023/10/25 07:25:28;;;;;;;2.50;1.70;;;11.90;99.90;;;;;;5053866;28;20188;-74
2023/10/25 07:27:54;;;;;;;4.45;2.38;;;12.00;99.90;;;;;;5054628;28;20172;-74
2023/10/25 07:30:19;;;;;;;3.20;1.50;;;12.00;99.90;;;;;;5071181;28;20204;-74
2023/10/25 07:32:45;;;;;;;3.70;1.60;;;12.10;99.90;;;;;;5073443;28;20200;-75
2023/10/25 07:35:11;;;;;;;4.80;1.57;;;12.20;99.90;;;;;;5073027;28;20191;-75
2023/10/25 07:37:37;;;;;;;5.67;1.83;;;12.30;99.90;;;;;;5067547;28;20585;-75
2023/10/25 07:40:05;;;;;;;4.30;1.57;;;12.40;99.90;;;;;;5073696;28;20178;-75
2023/10/25 07:42:31;;;;;;;2.67;1.00;;;12.50;99.90;;;;;;5055996;28;20574;-74
2023/10/25 07:45:07;;;;;;;2.10;1.50;;;12.50;99.90;;;;;;5089410;27;21159;-74
2023/10/25 07:47:33;;;;;;;3.27;1.27;;;12.60;99.90;;;;;;5087660;28;20578;-74
2023/10/25 07:49:59;;;;;;;2.83;1.43;;;12.70;99.90;;;;;;5070139;28;20673;-75
2023/10/25 07:52:27;;;;;;;3.50;1.20;;;12.70;99.90;;;;;;5104856;27;20208;-75
2023/10/25 07:54:53;;;;;;;8.00;1.43;;;12.80;99.90;;;;;;5046319;28;20165;-75
2023/10/25 07:57:19;;;;;;;3.10;1.43;;;12.80;99.90;;;;;;5067402;28;20669;-74
2023/10/25 07:59:45;;;;;;;4.00;1.30;;;12.90;99.90;;;;;;5083239;28;21038;-74
2023/10/25 08:02:11;;;;;;;3.80;1.23;;;13.00;99.90;;;;;;5067708;28;20668;-74
2023/10/25 08:04:37;;;;;;;3.03;1.30;;;13.20;99.90;;;;;;5066699;28;21187;-75
2023/10/25 08:07:03;;;;;;;4.03;0.93;;;13.30;99.90;;;;;;5045918;28;20636;-75
2023/10/25 08:09:30;;;;;;;3.30;1.20;;;13.50;99.90;;;;;;5048061;28;20268;-75
2023/10/25 08:11:55;;;;;;;4.37;1.33;;;13.60;99.90;;;;;;5046787;28;20197;-74
2023/10/25 08:14:21;;;;;;;3.50;1.10;;;13.60;99.90;;;;;;5046275;28;20600;-74
2023/10/25 08:16:47;;;;;;;6.20;1.30;;;13.80;99.90;;;;;;5047124;28;20535;-74
2023/10/25 08:19:12;;;;;;;3.70;0.80;;;13.80;99.90;;;;;;5047478;28;20230;-74
2023/10/25 08:21:38;;;;;;;6.70;0.80;;;13.90;99.90;;;;;;5029474;28;20718;-74
2023/10/25 08:24:05;;;;;;;4.63;1.00;;;14.10;99.90;;;;;;5045666;28;20655;-74
2023/10/25 08:26:36;;;;;;;1.90;0.80;;;14.20;99.90;;;;;;5047205;28;20212;-74
2023/10/25 08:29:02;;;;;;;3.20;1.03;;;14.20;99.90;;;;;;5029477;28;20765;-75
2023/10/25 08:31:28;;;;;;;3.50;0.90;;;14.10;99.90;;;;;;5046013;28;21199;-74
2023/10/25 08:33:54;;;;;;;3.17;1.00;;;14.20;99.90;;;;;;5047118;28;20583;-74
2023/10/25 08:36:20;;;;;;;3.47;1.00;;;14.20;99.90;;;;;;5045134;28;20272;-74
2023/10/25 08:38:45;;;;;;;2.83;0.73;;;14.20;99.90;;;;;;5072026;28;20196;-74
2023/10/25 08:41:11;;;;;;;2.70;1.13;;;14.20;99.90;;;;;;5056685;28;20180;-74
2023/10/25 08:43:38;;;;;;;3.23;1.00;;;14.20;99.90;;;;;;5095743;28;20212;-74
2023/10/25 08:46:05;;;;;;;2.90;1.03;;;14.10;99.90;;;;;;5066481;28;20176;-74
2023/10/25 08:48:32;;;;;;;2.10;0.97;;;14.00;99.90;;;;;;5049344;28;20588;-74
2023/10/25 08:50:59;;;;;;;3.97;1.20;;;14.00;99.90;;;;;;5066106;28;20570;-74
2023/10/25 08:53:26;;;;;;;4.03;0.97;;;13.90;99.90;;;;;;5061612;28;20609;-74
2023/10/25 08:55:54;;;;;;;3.03;1.00;;;13.80;99.90;;;;;;5048238;28;20656;-76
2023/10/25 08:58:20;;;;;;;6.77;1.30;;;13.70;99.90;;;;;;5040434;28;20583;-76
2023/10/25 09:00:47;;;;;;;6.07;1.23;;;13.60;99.90;;;;;;5033051;28;20933;-74
2023/10/25 09:03:34;;;;;;;4.07;1.00;;;13.50;99.90;;;;;;5053109;28;20643;-75
2023/10/25 09:06:04;;;;;;;2.70;0.90;;;13.30;99.90;;;;;;5049939;28;20625;-75
2023/10/25 09:08:31;;;;;;;3.33;1.10;;;13.20;99.90;;;;;;5051868;28;20595;-75
2023/10/25 09:11:02;;;;;;;4.00;1.33;;;13.00;99.90;;;;;;5050333;28;20586;-74
2023/10/25 09:13:34;;;;;;;3.60;1.10;;;13.00;99.90;;;;;;5047218;28;20579;-74
2023/10/25 09:16:13;;;;;;;2.60;0.90;;;12.90;99.90;;;;;;5051406;28;21159;-74
2023/10/25 09:18:40;;;;;;;2.17;0.90;;;12.90;99.90;;;;;;5052738;28;20590;-74
2023/10/25 09:21:07;;;;;;;6.33;1.27;;;12.90;99.90;;;;;;5052811;28;20580;-74
2023/10/25 09:23:35;;;;;;;2.80;1.27;;;12.90;99.90;;;;;;5047539;28;20751;-74
2023/10/25 09:26:13;;;;;;;4.93;1.30;;;12.80;99.90;;;;;;5051312;28;20633;-74
2023/10/25 09:28:39;;;;;;;4.37;1.50;;;12.80;99.90;;;;;;5051376;28;20615;-74
2023/10/25 09:31:20;;;;;;;2.67;1.00;;;12.80;99.90;;;;;;5053236;28;20571;-74
2023/10/25 09:33:50;;;;;;;4.23;1.10;;;12.80;99.90;;;;;;5043192;28;20208;-74
2023/10/25 09:36:20;;;;;;;1.90;1.10;;;12.90;99.90;;;;;;5017528;28;20607;-75
2023/10/25 09:38:46;;;;;;;4.63;1.10;;;12.90;99.90;;;;;;5049991;28;20185;-75
2023/10/25 09:41:17;;;;;;;3.03;1.80;;;12.80;99.90;;;;;;5052677;28;20583;-75
2023/10/25 09:43:56;;;;;;;2.50;1.47;;;12.90;99.90;;;;;;5052202;28;20712;-75
2023/10/25 09:46:23;;;;;;;3.67;1.40;;;12.90;99.90;;;;;;5046373;28;20572;-75
2023/10/25 09:49:03;;;;;;;2.15;1.05;;;12.90;99.90;;;;;;5048882;28;20590;-75
2023/10/25 09:51:39;;;;;;;2.10;1.23;;;13.00;99.90;;;;;;5052188;28;20669;-74
2023/10/25 09:54:13;;;;;;;2.20;1.57;;;13.00;99.90;;;;;;5067553;28;20595;-74
2023/10/25 09:56:39;;;;;;;2.73;1.20;;;13.10;99.90;;;;;;5050861;28;20592;-74
2023/10/25 09:59:08;;;;;;;2.10;1.17;;;13.10;99.90;;;;;;5034625;28;20641;-75
2023/10/25 10:01:34;;;;;;;4.70;1.20;;;13.10;99.90;;;;;;5051363;28;20638;-74
2023/10/25 10:04:22;;;;;;;5.07;1.63;;;13.10;99.90;;;;;;5080103;28;20643;-74
2023/10/25 10:07:12;;;;;;;4.03;2.47;;;13.20;99.90;;;;;;5040348;28;20590;-74
2023/10/25 10:09:54;;;;;;;2.07;1.20;;;13.20;99.90;;;;;;5033815;28;20616;-74
2023/10/25 10:12:20;;;;;;;2.03;1.40;;;13.20;99.90;;;;;;5071459;28;20706;-74
2023/10/25 10:14:45;;;;;;;2.80;1.63;;;13.20;99.90;;;;;;5038220;28;21150;-74
2023/10/25 10:17:14;;;;;;;2.70;1.43;;;13.20;99.90;;;;;;5045002;28;20653;-75
2023/10/25 10:19:45;;;;;;;3.13;1.80;;;13.10;99.90;;;;;;5051743;28;20187;-74
2023/10/25 10:22:16;;;;;;;3.93;1.80;;;13.10;99.90;;;;;;5043792;28;20619;-75
2023/10/25 10:24:58;;;;;;;3.60;2.20;;;13.00;99.90;;;;;;5050167;28;21223;-74
2023/10/25 10:27:54;;;;;;;2.83;1.97;;;12.90;99.90;;;;;;5047944;28;20583;-73
2023/10/25 10:30:39;;;;;;;3.93;2.17;;;12.90;99.90;;;;;;5066776;28;20675;-74
2023/10/25 10:33:08;;;;;;;3.57;2.47;;;12.70;99.90;;;;;;5043041;28;20607;-75
2023/10/25 10:35:34;;;;;;;5.10;2.87;;;12.60;99.90;;;;;;5051622;28;20607;-75
2023/10/25 10:38:00;;;;;;;4.53;2.73;;;12.60;99.90;;;;;;5043275;28;20635;-74
2023/10/25 10:40:26;;;;;;;5.60;4.30;;;12.40;99.90;;;;;;5051288;28;20185;-75
2023/10/25 10:42:52;;;;;;;3.17;2.87;;;12.30;99.90;;;;;;5049643;28;20603;-76
2023/10/25 10:45:19;;;;;;;4.53;3.50;;;12.30;99.90;;;;;;5036177;28;20180;-76
2023/10/25 10:47:53;;;;;;;4.43;3.05;;;12.30;99.90;;;;;;5049863;28;20583;-76
2023/10/25 10:50:24;;;;;;;4.13;3.33;;;12.20;99.90;;;;;;5081137;28;20209;-76
2023/10/25 10:52:51;;;;;;;10.90;7.30;;;12.20;99.90;;;;;;5042268;28;20952;-76
2023/10/25 10:55:22;;;;;;;7.70;5.82;;;12.20;99.90;;;;;;5036876;28;20216;-76
2023/10/25 10:57:48;;;;;;;5.10;4.60;;;12.20;99.90;;;;;;5048450;28;20188;-76
2023/10/25 11:00:16;;;;;;;5.63;3.87;;;12.20;99.90;;;;;;5049855;28;21115;-77
2023/10/25 11:02:52;;;;;;;7.10;4.93;;;12.20;99.90;;;;;;5049229;28;20642;-76
2023/10/25 11:05:23;;;;;;;6.23;5.60;;;12.20;99.90;;;;;;5050432;28;20177;-77
2023/10/25 11:07:50;;;;;;;5.95;4.93;;;12.10;99.90;;;;;;5041926;28;20647;-76
2023/10/25 11:10:17;;;;;;;6.45;5.75;;;12.10;99.90;;;;;;5042473;28;20571;-76
2023/10/25 11:12:43;;;;;;;7.38;6.68;;;12.10;99.90;;;;;;5016553;28;20189;-76
2023/10/25 11:15:10;;;;;;;11.18;9.32;;;12.10;99.90;;;;;;5049490;28;20172;-76
2023/10/25 11:17:37;;;;;;;13.30;11.90;;;12.10;99.90;;;;;;5050336;28;20264;-76
2023/10/25 11:20:03;;;;;;;15.60;12.10;;;12.10;99.90;;;;;;5041159;28;20181;-76
2023/10/25 11:22:31;;;;;;;10.37;9.27;;;12.10;99.90;;;;;;5050738;28;21115;-77
2023/10/25 11:24:58;;;;;;;9.90;7.37;;;12.10;99.90;;;;;;5048024;28;20639;-76
2023/10/25 11:27:31;;;;;;;15.83;12.53;;;12.10;99.90;;;;;;5050500;28;20933;-76
2023/10/25 11:29:58;;;;;;;10.40;9.40;;;12.10;99.90;;;;;;5064116;28;20626;-76
2023/10/25 11:32:24;;;;;;;10.32;8.10;;;12.10;99.90;;;;;;5035617;28;20698;-76
2023/10/25 11:34:56;;;;;;;8.87;7.97;;;12.00;99.90;;;;;;5032348;28;20670;-76
2023/10/25 11:37:22;;;;;;;7.93;7.13;;;12.10;99.90;;;;;;5042708;28;20322;-75
2023/10/25 11:39:57;;;;;;;7.40;6.70;;;12.00;99.90;;;;;;5048949;28;20586;-75
2023/10/25 11:42:29;;;;;;;5.60;4.80;;;12.00;99.90;;;;;;5051122;28;20557;-75
2023/10/25 11:44:55;;;;;;;5.75;5.22;;;12.10;99.90;;;;;;5050206;28;21441;-76
2023/10/25 11:47:22;;;;;;;6.13;5.10;;;12.10;99.90;;;;;;5048995;28;20200;-76
2023/10/25 11:49:52;;;;;;;4.53;4.00;;;12.10;99.90;;;;;;5048960;28;21171;-76
2023/10/25 11:52:26;;;;;;;5.03;4.20;;;12.10;99.90;;;;;;5046258;28;20608;-76
2023/10/25 11:54:55;;;;;;;6.28;5.53;;;12.10;99.90;;;;;;5038319;28;20188;-76
2023/10/25 11:57:29;;;;;;;5.17;4.43;;;12.00;99.90;;;;;;5046336;28;20642;-76
2023/10/25 11:59:54;;;;;;;6.53;5.75;;;12.10;99.90;;;;;;5048937;28;20588;-76
2023/10/25 12:02:22;;;;;;;6.93;5.87;;;12.10;99.90;;;;;;5051017;28;20678;-76
2023/10/25 12:04:49;;;;;;;6.47;5.47;;;12.20;99.90;;;;;;5048919;28;20241;-77
2023/10/25 12:07:15;;;;;;;5.90;4.55;;;12.20;99.90;;;;;;5060629;28;20260;-76
2023/10/25 12:09:42;;;;;;;4.37;2.90;;;12.20;99.90;;;;;;5036717;28;20194;-75
2023/10/25 12:12:09;;;;;;;3.73;3.33;;;12.20;99.90;;;;;;5046615;28;20194;-75
2023/10/25 12:14:35;;;;;;;4.43;4.00;;;12.30;99.90;;;;;;5055323;28;20600;-76
2023/10/25 12:17:01;;;;;;;5.00;3.53;;;12.30;99.90;;;;;;5026790;28;20584;-76
2023/10/25 12:19:27;;;;;;;6.40;4.43;;;12.30;99.90;;;;;;5027934;28;20632;-75
2023/10/25 12:21:55;;;;;;;4.90;3.83;;;12.30;99.90;;;;;;5039877;28;20228;-76
2023/10/25 12:24:25;;;;;;;5.47;4.67;;;12.30;99.90;;;;;;5042223;28;20235;-76
2023/10/25 12:26:52;;;;;;;5.30;3.63;;;12.40;99.90;;;;;;5048249;28;20637;-76
2023/10/25 12:29:18;;;;;;;4.80;3.70;;;12.30;99.90;;;;;;5039010;28;20584;-76
2023/10/25 12:31:44;;;;;;;4.83;2.80;;;12.30;99.90;;;;;;5048285;28;20619;-76
2023/10/25 12:34:09;;;;;;;6.50;4.90;;;12.40;99.90;;;;;;5052371;28;20948;-76
2023/10/25 12:36:35;;;;;;;5.50;4.00;;;12.40;99.90;;;;;;5049317;28;20583;-76
2023/10/25 12:39:01;;;;;;;5.23;3.77;;;12.40;99.90;;;;;;5043790;28;20185;-76
2023/10/25 12:41:26;;;;;;;6.03;3.57;;;12.40;99.90;;;;;;5047276;28;20732;-76
2023/10/25 12:43:52;;;;;;;4.40;3.43;;;12.40;99.90;;;;;;5051977;28;20208;-75
2023/10/25 12:46:18;;;;;;;3.17;2.87;;;12.40;99.90;;;;;;5053249;28;20177;-75